Fengcheng, China
Current Conditions -  °F | °C
As of 12:00 PM on Sunday 26 Oct 2014 (Local Time) from ZGHA Reporting Station
Clear Clear  
Wind Chill: 86°   Ceiling: Unl
Heat Index: 86°   Visibility: 6mi
Dew Point: 55°   Wind: 4mph
Humidity: 35%   Direction: 160°SSE
Pressure: 30.03"   Gusts: NA
Location:  28.2°N, 115.77°E
Report Text: ZGHA 260400Z 16002MPS 9000 NSC 30/13 Q1017 NOSIG
Loading
Personal Weather Stations






























Interactive Weather Map
Tropical Storm Tracking
New forecast layout! Learn more

10-Day Weather Forecast

Advertisements
Track Severe Weather on mobile